Home > Products > Valid Products > TAF

000
FTUS46 KSGX 060224 AAA
TAFTRM
TAF AMD
KTRM 060224Z 0602/0624 32010G18KT P6SM SCT100
     FM061100 32010KT P6SM BKN100
     FM061900 12010KT P6SM VCSH BKN070=



000
FTUS46 KSGX 060223 AAA
TAFONT
TAF AMD
KONT 060223Z 0602/0706 28010KT P6SM SCT035 BKN050
     FM060400 25007KT P6SM VCSH SCT025 BKN035
     FM060600 VRB05KT P6SM -SHRA SCT015 BKN025 OVC035
     FM062100 26011G21KT P6SM VCSH BKN025 OVC035
     FM070300 25008KT P6SM VCSH SCT025 BKN035=



000
FTUS46 KSGX 052325
TAFCRQ
TAF
KCRQ 052325Z 0600/0624 21011KT P6SM SCT035 OVC045
     FM060300 VRB05KT P6SM BKN025 BKN050
     FM060600 VRB05KT P6SM -SHRA SCT015 BKN025 OVC035
     FM061800 20010KT P6SM -SHRA BKN015 OVC025
     FM062100 23010G18KT P6SM VCSH SCT015 BKN025=



000
FTUS46 KSGX 052325
TAFCRQ
TAF
KCRQ 052325Z 0600/0624 21011KT P6SM SCT035 OVC045
     FM060300 VRB05KT P6SM BKN025 BKN050
     FM060600 VRB05KT P6SM -SHRA SCT015 BKN025 OVC035
     FM061800 20010KT P6SM -SHRA BKN015 OVC025
     FM062100 23010G18KT P6SM VCSH SCT015 BKN025=



000
FTUS46 KSGX 052325
TAFTRM
TAF
KTRM 052325Z 0600/0624 32015G25KT P6SM SCT100
     FM061100 32010KT P6SM BKN100
     FM061900 12010KT P6SM VCSH BKN070=



000
FTUS46 KSGX 052325
TAFSAN
TAF
KSAN 052325Z 0600/0706 23011KT P6SM SCT025 BKN045
     FM060300 20006KT P6SM SCT025 BKN035
     FM060600 VRB05KT P6SM -SHRA SCT015 BKN025 OVC040
     FM061800 21010KT P6SM -SHRA BKN018 OVC025
     FM062100 24010G18KT P6SM VCSH SCT015 BKN025
     FM070200 27006KT P6SM VCSH SCT015 BKN025=



000
FTUS46 KSGX 052325
TAFONT
TAF
KONT 052325Z 0600/0706 22010G18KT P6SM SCT035 BKN050
     FM060400 25007KT P6SM VCSH SCT025 BKN035
     FM060600 VRB05KT P6SM -SHRA SCT015 BKN025 OVC035
     FM062100 26011G21KT P6SM VCSH BKN025 OVC035
     FM070300 25008KT P6SM VCSH SCT025 BKN035=



000
FTUS46 KSGX 052325
TAFSNA
TAF
KSNA 052325Z 0600/0624 20011KT P6SM FEW035 BKN045
     FM060300 19006KT P6SM VCSH SCT025 OVC035
     FM060600 VRB05KT P6SM -SHRA SCT015 BKN025 OVC035
     FM061800 19010KT P6SM -SHRA SCT015 BKN025
     FM062100 22010G18KT P6SM VCSH SCT025 BKN035=



000
FTUS46 KSGX 052325
TAFPSP
TAF
KPSP 052325Z 0600/0624 30020G30KT P6SM SCT100
     FM060300 32012G22KT P6SM BKN100
     FM061000 VRB06KT P6SM BKN080
     FM061800 34012G20KT P6SM VCSH BKN070=



000
FTUS46 KSGX 052325
TAFTRM
TAF
KTRM 052325Z 0600/0624 32015G25KT P6SM SCT100
     FM061100 32010KT P6SM BKN100
     FM061900 12010KT P6SM VCSH BKN070=



000
FTUS46 KSGX 052325
TAFSAN
TAF
KSAN 052325Z 0600/0706 23011KT P6SM SCT025 BKN045
     FM060300 20006KT P6SM SCT025 BKN035
     FM060600 VRB05KT P6SM -SHRA SCT015 BKN025 OVC040
     FM061800 21010KT P6SM -SHRA BKN018 OVC025
     FM062100 24010G18KT P6SM VCSH SCT015 BKN025
     FM070200 27006KT P6SM VCSH SCT015 BKN025=



000
FTUS46 KSGX 052325
TAFONT
TAF
KONT 052325Z 0600/0706 22010G18KT P6SM SCT035 BKN050
     FM060400 25007KT P6SM VCSH SCT025 BKN035
     FM060600 VRB05KT P6SM -SHRA SCT015 BKN025 OVC035
     FM062100 26011G21KT P6SM VCSH BKN025 OVC035
     FM070300 25008KT P6SM VCSH SCT025 BKN035=



000
FTUS46 KSGX 052325
TAFSNA
TAF
KSNA 052325Z 0600/0624 20011KT P6SM FEW035 BKN045
     FM060300 19006KT P6SM VCSH SCT025 OVC035
     FM060600 VRB05KT P6SM -SHRA SCT015 BKN025 OVC035
     FM061800 19010KT P6SM -SHRA SCT015 BKN025
     FM062100 22010G18KT P6SM VCSH SCT025 BKN035=



000
FTUS46 KSGX 052325
TAFPSP
TAF
KPSP 052325Z 0600/0624 30020G30KT P6SM SCT100
     FM060300 32012G22KT P6SM BKN100
     FM061000 VRB06KT P6SM BKN080
     FM061800 34012G20KT P6SM VCSH BKN070=



000
FTUS46 KSGX 052154 AAA
TAFSNA
TAF AMD
KSNA 052154Z 0522/0618 21011G18KT P6SM FEW025 BKN035
     FM060300 19009KT P6SM VCSH BKN025 OVC035
     FM060600 VRB05KT P6SM -SHRA BKN025 OVC040
     FM061730 22010KT P6SM BKN030 OVC040=



000
FTUS46 KSGX 052154 AAA
TAFSNA
TAF AMD
KSNA 052154Z 0522/0618 21011G18KT P6SM FEW025 BKN035
     FM060300 19009KT P6SM VCSH BKN025 OVC035
     FM060600 VRB05KT P6SM -SHRA BKN025 OVC040
     FM061730 22010KT P6SM BKN030 OVC040=



000
FTUS46 KSGX 052053 AAA
TAFSAN
TAF AMD
KSAN 052053Z 0521/0624 21011KT P6SM SCT025 BKN035
     FM060300 VRB05KT P6SM SCT025 BKN050
     FM060600 VRB05KT P6SM -SHRA BKN025 OVC040
     FM061800 22010KT P6SM -SHRA BKN018 OVC035=



000
FTUS46 KSGX 052053 AAA
TAFSAN
TAF AMD
KSAN 052053Z 0521/0624 21011KT P6SM SCT025 BKN035
     FM060300 VRB05KT P6SM SCT025 BKN050
     FM060600 VRB05KT P6SM -SHRA BKN025 OVC040
     FM061800 22010KT P6SM -SHRA BKN018 OVC035=



000
FTUS46 KSGX 051734
TAFTRM
TAF
KTRM 051734Z 0518/0618 32015G25KT P6SM SCT200
     FM060600 32011KT P6SM SCT200=



000
FTUS46 KSGX 051734
TAFPSP
TAF
KPSP 051734Z 0518/0618 33017G27KT P6SM SCT250
     FM060300 32011G18KT P6SM SCT250
     FM060900 VRB06KT P6SM VCSH OVC050=



000
FTUS46 KSGX 051734
TAFSNA
TAF
KSNA 051734Z 0518/0618 VRB05KT P6SM SCT025 OVC040
     FM051900 21011G18KT P6SM FEW025 BKN035
     FM060300 22009KT P6SM VCSH BKN025 OVC035
     FM060600 VRB05KT P6SM -SHRA BKN025 OVC040
     FM061730 22010KT P6SM BKN030 OVC040=



000
FTUS46 KSGX 051734
TAFCRQ
TAF
KCRQ 051734Z 0518/0618 VRB04KT P6SM OVC035
     FM051900 23011KT P6SM OVC035
     FM060300 VRB05KT P6SM VCSH BKN025 BKN050
     FM060600 VRB05KT P6SM -SHRA BKN025 OVC040
     FM061730 23010KT P6SM -SHRA BKN025 OVC035=



000
FTUS46 KSGX 051734
TAFONT
TAF
KONT 051734Z 0518/0624 VRB06KT P6SM SCT025 BKN040
     FM052100 25012G20KT P6SM SCT025 BKN040
     FM060400 25007KT P6SM VCSH SCT025 BKN035
     FM060600 VRB05KT P6SM -SHRA BKN020 OVC035
     FM062100 26011G21KT P6SM -SHRA BKN025 OVC035=



000
FTUS46 KSGX 051734
TAFSAN
TAF
KSAN 051734Z 0518/0624 VRB05KT P6SM SCT025 OVC035
     FM051900 20011KT P6SM SCT025 BKN035
     FM060300 VRB05KT P6SM SCT025 BKN050
     FM060600 VRB05KT P6SM -SHRA BKN025 OVC040
     FM061800 22010KT P6SM -SHRA BKN018 OVC035=



000
FTUS46 KSGX 051616 AAA
TAFCRQ
TAF AMD
KCRQ 051616Z 0516/0612 VRB04KT P6SM OVC035
     FM051900 23011KT P6SM SCT030
     FM060300 VRB05KT P6SM VCSH BKN025 BKN050
     FM060600 VRB05KT P6SM -SHRA BKN020 OVC040=



000
FTUS46 KSGX 051616 AAA
TAFCRQ
TAF AMD
KCRQ 051616Z 0516/0612 VRB04KT P6SM OVC035
     FM051900 23011KT P6SM SCT030
     FM060300 VRB05KT P6SM VCSH BKN025 BKN050
     FM060600 VRB05KT P6SM -SHRA BKN020 OVC040=



000
FTUS46 KSGX 051606 AAA
TAFSAN
TAF AMD
KSAN 051606Z 0516/0618 VRB05KT P6SM OVC035
     FM051900 19011KT P6SM SCT035
     FM060300 VRB05KT P6SM SCT025 BKN050
     FM060700 VRB05KT P6SM -SHRA BKN025 OVC040=



000
FTUS46 KSGX 051141 CCA
TAFSNA
TAF COR
KSNA 051141Z 0512/0612 VRB05KT P6SM SCT025 OVC040
     FM051900 21011G18KT P6SM FEW025 BKN035
     FM060300 22009KT P6SM VCSH BKN025 OVC035
     FM060600 VRB05KT P6SM -SHRA BKN020 OVC040=



000
FTUS46 KSGX 051141 CCA
TAFSNA
TAF COR
KSNA 051141Z 0512/0612 VRB05KT P6SM SCT025 OVC040
     FM051900 21011G18KT P6SM FEW025 BKN035
     FM060300 22009KT P6SM VCSH BKN025 OVC035
     FM060600 VRB05KT P6SM -SHRA BKN020 OVC040=



000
FTUS46 KSGX 051135
TAFPSP
TAF
KPSP 051135Z 0512/0612 29011KT P6SM SCT250
     FM051800 33015G28KT P6SM SCT250
     FM060300 32011G18KT P6SM SCT250=



000
FTUS46 KSGX 051135
TAFONT
TAF
KONT 051135Z 0512/0618 VRB06KT P6SM OVC018
     FM051800 25012G20KT P6SM SCT025 BKN040
     FM060400 25008KT P6SM VCSH SCT025 BKN035
     FM060800 VRB05KT P6SM VCSH BKN020 OVC035
     FM061600 VRB05KT P6SM FEW020 OVC040=



000
FTUS46 KSGX 051135
TAFTRM
TAF
KTRM 051135Z 0512/0612 33012KT P6SM SCT200
     FM051800 32015G25KT P6SM SCT200
     FM060700 32011KT P6SM SCT200=



000
FTUS46 KSGX 051135
TAFCRQ
TAF
KCRQ 051135Z 0512/0612 VRB04KT P6SM OVC030
     FM051900 23011KT P6SM SCT030
     FM060300 VRB05KT P6SM VCSH BKN025 BKN050
     FM060600 VRB05KT P6SM -SHRA BKN020 OVC040=



000
FTUS46 KSGX 051135
TAFSNA
TAF
KSNA 051135Z 0512/0612 VRB05KT P6SM BKN025 OVC040
     FM051900 21011G18KT P6SM SCT025 BKN035
     FM060300 22009KT P6SM VCSH BKN025 OVC035
     FM060600 VRB05KT P6SM -SHRA BKN020 OVC040=



000
FTUS46 KSGX 051135
TAFSAN
TAF
KSAN 051135Z 0512/0618 VRB05KT P6SM OVC035
     FM051900 19011KT P6SM SCT035
     FM060300 VRB05KT P6SM SCT025 BKN050
     FM060700 VRB05KT P6SM -SHRA BKN025 OVC040=



000
FTUS46 KSGX 050914 AAA
TAFSAN
TAF AMD
KSAN 050914Z 0509/0612 VRB05KT P6SM OVC025
     FM051900 20011KT P6SM SCT025
     FM060330 VRB05KT P6SM SCT020 BKN050
     FM060700 VRB05KT P6SM VCSH BKN020 OVC050=



000
FTUS46 KSGX 050913 AAA
TAFONT
TAF AMD
KONT 050913Z 0509/0612 VRB05KT P6SM BKN018
     FM051700 25010KT P6SM SCT025 BKN035
     FM052000 25012G20KT P6SM SCT025 BKN035
     FM060400 25008KT P6SM FEW025 BKN035
     FM060800 VRB05KT P6SM VCSH BKN027 OVC035=



000
FTUS46 KSGX 050913 AAA
TAFSNA
TAF AMD
KSNA 050913Z 0509/0606 VRB05KT P6SM OVC030
     FM051900 23011G18KT P6SM SCT025 BKN035
     FM060330 VRB05KT P6SM VCSH BKN020 OVC035=



000
FTUS46 KSGX 050912 AAA
TAFCRQ
TAF AMD
KCRQ 050912Z 0509/0606 VRB05KT P6SM OVC022
     FM051900 23011KT P6SM SCT025
     FM060300 VRB05KT P6SM BKN025=



000
FTUS46 KSGX 050520
TAFSAN
TAF
KSAN 050520Z 0506/0612 VRB04KT P6SM BKN020 OVC250
     FM051200 VRB05KT P6SM OVC025
     FM051900 20011KT P6SM SCT025
     FM060330 VRB05KT P6SM SCT020 BKN050
     FM060700 VRB05KT P6SM VCSH BKN020 OVC050=



000
FTUS46 KSGX 050520
TAFONT
TAF
KONT 050520Z 0506/0612 26007KT P6SM BKN030 OVC150
     FM050800 VRB05KT P6SM BKN020
     FM051700 25010KT P6SM SCT025 BKN035
     FM052000 25012G20KT P6SM SCT025 BKN035
     FM060400 25008KT P6SM FEW025 BKN035
     FM060800 VRB05KT P6SM VCSH BKN027 OVC035=



000
FTUS46 KSGX 050520
TAFPSP
TAF
KPSP 050520Z 0506/0606 32016G25KT P6SM SCT250
     FM051000 VRB06KT P6SM BKN250
     FM052000 32012G20KT P6SM BKN250
     FM052300 32017G25KT P6SM BKN250=



000
FTUS46 KSGX 050520
TAFSNA
TAF
KSNA 050520Z 0506/0606 VRB05KT P6SM FEW015 BKN025
     FM051900 23011G18KT P6SM SCT025 BKN035
     FM060330 VRB05KT P6SM VCSH BKN020 OVC035=



000
FTUS46 KSGX 050520
TAFCRQ
TAF
KCRQ 050520Z 0506/0606 VRB05KT P6SM FEW018
     FM050730 VRB05KT P6SM BKN018
     FM051200 VRB05KT P6SM OVC022
     FM051900 23011KT P6SM SCT025
     FM060300 VRB05KT P6SM BKN025=



000
FTUS46 KSGX 050520
TAFTRM
TAF
KTRM 050520Z 0506/0606 33012G22KT P6SM SCT200
     FM051200 33011KT P6SM SCT200
     FM051500 32015G25KT P6SM SCT200=



000
FTUS46 KSGX 050254 AAA
TAFSAN
TAF AMD
KSAN 050254Z 0503/0606 VRB04KT P6SM SCT025 BKN250
     FM050430 VRB04KT P6SM BKN025 OVC250
     FM051200 VRB05KT P6SM OVC025
     FM051900 20011KT P6SM SCT025
     FM060230 VRB05KT P6SM BKN020=



000
FTUS46 KSGX 050105 AAA
TAFPSP
TAF AMD
KPSP 050105Z 0501/0524 32016G25KT P6SM SCT250
     FM051000 VRB06KT P6SM BKN250
     FM052100 34012G20KT P6SM BKN250=



000
FTUS46 KSGX 042323
TAFPSP
TAF
KPSP 042323Z 0500/0524 08011KT P6SM SCT200
     FM050200 33012G20KT P6SM SCT250
     FM051000 VRB06KT P6SM BKN250
     FM052100 34012G20KT P6SM BKN250=



000
FTUS46 KSGX 042323
TAFSAN
TAF
KSAN 042323Z 0500/0606 24009KT P6SM BKN020
     FM050300 VRB04KT P6SM OVC020
     FM051200 VRB05KT P6SM OVC025
     FM051900 20011KT P6SM SCT025
     FM060230 VRB05KT P6SM BKN020=



000
FTUS46 KSGX 042323
TAFSNA
TAF
KSNA 042323Z 0500/0524 23009KT P6SM BKN018
     FM050300 VRB04KT P6SM SCT015 BKN018
     FM051000 VRB05KT P6SM OVC020
     FM051900 23011G18KT P6SM SCT025=



000
FTUS46 KSGX 042323
TAFCRQ
TAF
KCRQ 042323Z 0500/0524 25011KT P6SM SCT010 BKN016
     FM050200 VRB05KT P6SM OVC016
     FM051200 VRB05KT P6SM OVC020
     FM051900 23011KT P6SM SCT025=



000
FTUS46 KSGX 042323
TAFONT
TAF
KONT 042323Z 0500/0606 25012G22KT P6SM SCT200
     FM050500 24011G18KT P6SM BKN025
     FM050800 26006KT P6SM BKN020
     FM051700 25010KT P6SM SCT025
     FM052000 25012G20KT P6SM SCT025
     FM060400 25008KT P6SM FEW020 BKN035=



000
FTUS46 KSGX 042323
TAFTRM
TAF
KTRM 042323Z 0500/0524 14012G20KT P6SM SCT200
     FM050500 33012G22KT P6SM SCT200
     FM051600 VRB06KT P6SM SCT200=



000
FTUS46 KSGX 042323
TAFSNA
TAF
KSNA 042323Z 0500/0524 23009KT P6SM BKN018
     FM050300 VRB04KT P6SM SCT015 BKN018
     FM051000 VRB05KT P6SM OVC020
     FM051900 23011G18KT P6SM SCT025=



000
FTUS46 KSGX 042323
TAFCRQ
TAF
KCRQ 042323Z 0500/0524 25011KT P6SM SCT010 BKN016
     FM050200 VRB05KT P6SM OVC016
     FM051200 VRB05KT P6SM OVC020
     FM051900 23011KT P6SM SCT025=



000
FTUS46 KSGX 042323
TAFSAN
TAF
KSAN 042323Z 0500/0606 24009KT P6SM BKN020
     FM050300 VRB04KT P6SM OVC020
     FM051200 VRB05KT P6SM OVC025
     FM051900 20011KT P6SM SCT025
     FM060230 VRB05KT P6SM BKN020=



000
FTUS46 KSGX 042323
TAFTRM
TAF
KTRM 042323Z 0500/0524 14012G20KT P6SM SCT200
     FM050500 33012G22KT P6SM SCT200
     FM051600 VRB06KT P6SM SCT200=



000
FTUS46 KSGX 042323
TAFPSP
TAF
KPSP 042323Z 0500/0524 08011KT P6SM SCT200
     FM050200 33012G20KT P6SM SCT250
     FM051000 VRB06KT P6SM BKN250
     FM052100 34012G20KT P6SM BKN250=



000
FTUS46 KSGX 042323
TAFONT
TAF
KONT 042323Z 0500/0606 25012G22KT P6SM SCT200
     FM050500 24011G18KT P6SM BKN025
     FM050800 26006KT P6SM BKN020
     FM051700 25010KT P6SM SCT025
     FM052000 25012G20KT P6SM SCT025
     FM060400 25008KT P6SM FEW020 BKN035=



000
FTUS46 KSGX 042144 AAA
TAFSNA
TAF AMD
KSNA 042144Z 0422/0518 22011KT P6SM BKN018
      TEMPO 0422/0424 SCT022
     FM050300 VRB04KT P6SM SCT015 BKN022=



000
FTUS46 KSGX 042046 AAB
TAFSAN
TAF AMD
KSAN 042046Z 0421/0524 28009KT P6SM SCT018
      TEMPO 0421/0424 BKN017
     FM050200 VRB04KT P6SM OVC025
     FM051900 20009KT P6SM OVC025=



000
FTUS46 KSGX 042046 AAB
TAFSAN
TAF AMD
KSAN 042046Z 0421/0524 28009KT P6SM SCT018
      TEMPO 0421/0424 BKN017
     FM050200 VRB04KT P6SM OVC025
     FM051900 20009KT P6SM OVC025=



000
FTUS46 KSGX 041958 AAA
TAFSAN
TAF AMD
KSAN 041958Z 0420/0524 28009KT P6SM BKN018
      TEMPO 0420/0424 SCT025
     FM050200 VRB04KT P6SM OVC025
     FM051900 20009KT P6SM OVC025=



000
FTUS46 KSGX 041957 AAA
TAFCRQ
TAF AMD
KCRQ 041957Z 0420/0518 25008KT P6SM SCT010 BKN018
      TEMPO 0420/0424 SCT025
     FM050200 VRB03KT P6SM OVC020=



000
FTUS46 KSGX 041735 CCA
TAFCRQ
TAF COR
KCRQ 041735Z 0418/0518 25008KT P6SM SCT010 BKN015
      TEMPO 0420/0424 SCT025
     FM050200 VRB03KT P6SM OVC020=



000
FTUS46 KSGX 041735
TAFSNA
TAF
KSNA 041735Z 0418/0518 VRB05KT P6SM BKN018
     FM041900 22011KT P6SM BKN020
      TEMPO 0420/0424 SCT022
     FM050300 VRB04KT P6SM SCT015 BKN022=



000
FTUS46 KSGX 041735
TAFPSP
TAF
KPSP 041735Z 0418/0518 VRB05KT P6SM SCT200
     FM041900 08007KT P6SM SCT200
     FM050100 33012G22KT P6SM SCT250
     FM050800 VRB06KT P6SM BKN250=



000
FTUS46 KSGX 041735
TAFSAN
TAF
KSAN 041735Z 0418/0524 VRB04KT P6SM OVC017
     FM041900 28009KT P6SM BKN022
      TEMPO 0420/0424 SCT025
     FM050200 VRB04KT P6SM OVC025
     FM051900 20009KT P6SM OVC025=



000
FTUS46 KSGX 041735
TAFTRM
TAF
KTRM 041735Z 0418/0518 14012G20KT P6SM SCT200
     FM050500 33012G22KT P6SM SCT200
     FM051600 VRB06KT P6SM SCT200=



000
FTUS46 KSGX 041735
TAFCRQ
TAF
KCRQ 041735Z 0418/0518 25008KT P6SM SCT010 BKN022
      TEMPO 0420/0424 SCT025
     FM050200 VRB03KT P6SM OVC020=



000
FTUS46 KSGX 041735
TAFONT
TAF
KONT 041735Z 0418/0524 25011G18KT P6SM SCT015 SCT200
     FM050400 24011G18KT P6SM BKN025
     FM050800 26006KT P6SM SCT025
     FM052000 26011KT P6SM SCT025=



000
FTUS46 KSGX 041735 CCA
TAFCRQ
TAF COR
KCRQ 041735Z 0418/0518 25008KT P6SM SCT010 BKN015
      TEMPO 0420/0424 SCT025
     FM050200 VRB03KT P6SM OVC020=



000
FTUS46 KSGX 041735
TAFONT
TAF
KONT 041735Z 0418/0524 25011G18KT P6SM SCT015 SCT200
     FM050400 24011G18KT P6SM BKN025
     FM050800 26006KT P6SM SCT025
     FM052000 26011KT P6SM SCT025=



000
FTUS46 KSGX 041735
TAFSNA
TAF
KSNA 041735Z 0418/0518 VRB05KT P6SM BKN018
     FM041900 22011KT P6SM BKN020
      TEMPO 0420/0424 SCT022
     FM050300 VRB04KT P6SM SCT015 BKN022=



000
FTUS46 KSGX 041735
TAFCRQ
TAF
KCRQ 041735Z 0418/0518 25008KT P6SM SCT010 BKN022
      TEMPO 0420/0424 SCT025
     FM050200 VRB03KT P6SM OVC020=



000
FTUS46 KSGX 041735
TAFPSP
TAF
KPSP 041735Z 0418/0518 VRB05KT P6SM SCT200
     FM041900 08007KT P6SM SCT200
     FM050100 33012G22KT P6SM SCT250
     FM050800 VRB06KT P6SM BKN250=



000
FTUS46 KSGX 041735
TAFSAN
TAF
KSAN 041735Z 0418/0524 VRB04KT P6SM OVC017
     FM041900 28009KT P6SM BKN022
      TEMPO 0420/0424 SCT025
     FM050200 VRB04KT P6SM OVC025
     FM051900 20009KT P6SM OVC025=



000
FTUS46 KSGX 041735
TAFTRM
TAF
KTRM 041735Z 0418/0518 14012G20KT P6SM SCT200
     FM050500 33012G22KT P6SM SCT200
     FM051600 VRB06KT P6SM SCT200=



000
FTUS46 KSGX 041507 AAA
TAFONT
TAF AMD
KONT 041507Z 0415/0518 VRB05KT 5SM BR BKN010
     FM041600 VRB04KT 6SM HZ FEW020
     FM042000 25011G18KT P6SM SCT200
     FM050400 26008KT P6SM SCT030 SCT200
     FM050900 VRB05KT P6SM BKN025=



000
FTUS46 KSGX 041507 AAA
TAFONT
TAF AMD
KONT 041507Z 0415/0518 VRB05KT 5SM BR BKN010
     FM041600 VRB04KT 6SM HZ FEW020
     FM042000 25011G18KT P6SM SCT200
     FM050400 26008KT P6SM SCT030 SCT200
     FM050900 VRB05KT P6SM BKN025=



000
FTUS46 KSGX 041506 AAA
TAFSAN
TAF AMD
KSAN 041506Z 0415/0518 VRB04KT P6SM OVC015
     FM041900 28009KT P6SM BKN025
      TEMPO 0420/0424 SCT025
     FM050200 VRB04KT P6SM OVC022=



000
FTUS46 KSGX 041506 AAA
TAFSAN
TAF AMD
KSAN 041506Z 0415/0518 VRB04KT P6SM OVC015
     FM041900 28009KT P6SM BKN025
      TEMPO 0420/0424 SCT025
     FM050200 VRB04KT P6SM OVC022=



000
FTUS46 KSGX 041505 AAA
TAFSNA
TAF AMD
KSNA 041505Z 0415/0512 VRB05KT P6SM BKN015
     FM042100 22011KT P6SM SCT020
     FM050300 VRB04KT P6SM SCT015 BKN020
     FM050500 VRB03KT P6SM OVC015=



000
FTUS46 KSGX 041505 AAA
TAFSNA
TAF AMD
KSNA 041505Z 0415/0512 VRB05KT P6SM BKN015
     FM042100 22011KT P6SM SCT020
     FM050300 VRB04KT P6SM SCT015 BKN020
     FM050500 VRB03KT P6SM OVC015=



000
FTUS46 KSGX 041134
TAFPSP
TAF
KPSP 041134Z 0412/0512 VRB05KT P6SM SCT200
     FM041900 08012KT P6SM SCT200
     FM050100 33012G20KT P6SM SCT250
     FM050800 VRB06KT P6SM BKN250=



000
FTUS46 KSGX 041134
TAFTRM
TAF
KTRM 041134Z 0412/0512 VRB05KT P6SM SCT200
     FM041800 14012G20KT P6SM SCT200
     FM050300 33011KT P6SM SCT200=



000
FTUS46 KSGX 041134
TAFSAN
TAF
KSAN 041134Z 0412/0518 VRB04KT P6SM OVC015
     FM041900 28009KT P6SM BKN025
      TEMPO 0420/0424 SCT025
     FM050200 VRB04KT P6SM OVC022=



000
FTUS46 KSGX 041134
TAFSNA
TAF
KSNA 041134Z 0412/0512 VRB03KT P6SM OVC008
     FM041700 VRB05KT P6SM BKN015
     FM042100 22011KT P6SM SCT020
     FM050300 VRB04KT P6SM SCT015 BKN020
     FM050500 VRB03KT P6SM OVC015=



000
FTUS46 KSGX 041134
TAFONT
TAF
KONT 041134Z 0412/0518 VRB05KT 5SM BR SCT010
     FM041600 VRB04KT 6SM HZ FEW020
     FM042000 25011G18KT P6SM SCT200
     FM050400 26008KT P6SM SCT030 SCT200
     FM050900 VRB05KT P6SM BKN025=



000
FTUS46 KSGX 041134
TAFCRQ
TAF
KCRQ 041134Z 0412/0512 VRB03KT P6SM OVC010
      TEMPO 0412/0415 5SM BR OVC007
     FM041800 25008KT P6SM SCT010 BKN022
      TEMPO 0420/0424 SCT025
     FM050200 VRB03KT P6SM OVC018=



000
FTUS46 KSGX 041134
TAFSNA
TAF
KSNA 041134Z 0412/0512 VRB03KT P6SM OVC008
     FM041700 VRB05KT P6SM BKN015
     FM042100 22011KT P6SM SCT020
     FM050300 VRB04KT P6SM SCT015 BKN020
     FM050500 VRB03KT P6SM OVC015=



000
FTUS46 KSGX 041134
TAFPSP
TAF
KPSP 041134Z 0412/0512 VRB05KT P6SM SCT200
     FM041900 08012KT P6SM SCT200
     FM050100 33012G20KT P6SM SCT250
     FM050800 VRB06KT P6SM BKN250=



000
FTUS46 KSGX 041134
TAFTRM
TAF
KTRM 041134Z 0412/0512 VRB05KT P6SM SCT200
     FM041800 14012G20KT P6SM SCT200
     FM050300 33011KT P6SM SCT200=



000
FTUS46 KSGX 041134
TAFSAN
TAF
KSAN 041134Z 0412/0518 VRB04KT P6SM OVC015
     FM041900 28009KT P6SM BKN025
      TEMPO 0420/0424 SCT025
     FM050200 VRB04KT P6SM OVC022=



000
FTUS46 KSGX 041134
TAFCRQ
TAF
KCRQ 041134Z 0412/0512 VRB03KT P6SM OVC010
      TEMPO 0412/0415 5SM BR OVC007
     FM041800 25008KT P6SM SCT010 BKN022
      TEMPO 0420/0424 SCT025
     FM050200 VRB03KT P6SM OVC018=



000
FTUS46 KSGX 041134
TAFONT
TAF
KONT 041134Z 0412/0518 VRB05KT 5SM BR SCT010
     FM041600 VRB04KT 6SM HZ FEW020
     FM042000 25011G18KT P6SM SCT200
     FM050400 26008KT P6SM SCT030 SCT200
     FM050900 VRB05KT P6SM BKN025=



000
FTUS46 KSGX 041010 AAB
TAFSNA
TAF AMD
KSNA 041010Z 0410/0506 VRB03KT P6SM OVC009
     FM041900 22011KT P6SM SCT015 BKN020
      TEMPO 0420/0423 SCT025
     FM050200 VRB04KT P6SM SCT015 BKN020
     FM050400 VRB03KT P6SM OVC015=



000
FTUS46 KSGX 041010 AAA
TAFSAN
TAF AMD
KSAN 041010Z 0410/0512 VRB04KT P6SM OVC015
     FM041900 28009KT P6SM BKN025
     FM050200 VRB04KT P6SM OVC022=



000
FTUS46 KSGX 040806 AAA
TAFSNA
TAF AMD
KSNA 040806Z 0408/0506 VRB05KT P6SM SCT008
     FM040900 VRB04KT P6SM OVC010
     FM041900 22011KT P6SM SCT015 BKN020
      TEMPO 0420/0423 SCT025
     FM050200 VRB04KT P6SM SCT015 BKN020
     FM050400 VRB03KT P6SM OVC015=



000
FTUS46 KSGX 040520
TAFSNA
TAF
KSNA 040520Z 0406/0506 VRB05KT P6SM BKN008
      TEMPO 0406/0408 SCT008
     FM040900 VRB04KT P6SM OVC010
     FM041900 22011KT P6SM SCT015 BKN020
      TEMPO 0420/0423 SCT025
     FM050200 VRB04KT P6SM SCT015 BKN020
     FM050400 VRB03KT P6SM OVC015=



000
FTUS46 KSGX 040520
TAFONT
TAF
KONT 040520Z 0406/0512 VRB05KT P6SM SCT200
     FM041100 VRB04KT 5SM BR BKN010
     FM041600 VRB03KT 6SM HZ SCT012 BKN025
     FM042000 25010G18KT P6SM SCT200
     FM050400 VRB05KT P6SM SCT200
     FM050900 VRB05KT P6SM BKN010=



000
FTUS46 KSGX 040520
TAFCRQ
TAF
KCRQ 040520Z 0406/0506 VRB04KT P6SM OVC010
      TEMPO 0410/0414 5SM BR OVC008
     FM041800 24008KT P6SM SCT010 BKN020
     FM050200 VRB03KT P6SM OVC015=



000
FTUS46 KSGX 040520
TAFSAN
TAF
KSAN 040520Z 0406/0512 VRB04KT P6SM OVC015
     FM041900 28009KT P6SM BKN025
     FM050200 VRB04KT P6SM OVC022=



000
FTUS46 KSGX 040520
TAFPSP
TAF
KPSP 040520Z 0406/0506 32011KT P6SM SKC
     FM040800 VRB05KT P6SM SCT200
     FM041900 08010KT P6SM SCT200
     FM050100 33012G20KT P6SM SCT250=



000
FTUS46 KSGX 040520
TAFTRM
TAF
KTRM 040520Z 0406/0506 VRB05KT P6SM SCT200
     FM041800 14011KT P6SM SCT200
     FM050300 33012KT P6SM SCT200=



000
FTUS46 KSGX 040357 AAA
TAFSNA
TAF AMD
KSNA 040357Z 0404/0424 VRB05KT P6SM BKN008
     FM040800 VRB04KT P6SM OVC012
     FM041900 22011KT P6SM BKN025=



000
FTUS46 KSGX 040357 AAA
TAFSNA
TAF AMD
KSNA 040357Z 0404/0424 VRB05KT P6SM BKN008
     FM040800 VRB04KT P6SM OVC012
     FM041900 22011KT P6SM BKN025=



000
FTUS46 KSGX 040319 AAA
TAFCRQ
TAF AMD
KCRQ 040319Z 0403/0424 VRB04KT P6SM OVC010
      TEMPO 0410/0414 5SM BR OVC008
     FM041800 24008KT P6SM SCT010 BKN020=



000
FTUS46 KSGX 040318 AAA
TAFSAN
TAF AMD
KSAN 040318Z 0403/0506 VRB04KT P6SM OVC015
     FM041900 28009KT P6SM BKN025
     FM050200 VRB04KT P6SM OVC022=



000
FTUS46 KSGX 032321
TAFSAN
TAF
KSAN 032321Z 0400/0506 30008KT P6SM FEW011 SCT025 SCT200
     FM040200 VRB04KT P6SM SCT011 BKN200
     FM040600 VRB04KT P6SM OVC012
     FM041600 VRB05KT P6SM BKN022
     FM042000 25009KT P6SM BKN025
     FM050200 VRB04KT P6SM OVC022=



000
FTUS46 KSGX 032321
TAFCRQ
TAF
KCRQ 032321Z 0400/0424 24008KT P6SM SCT200
     FM040200 VRB04KT P6SM SCT012
     FM040500 VRB04KT P6SM OVC010
     FM041800 24008KT P6SM SCT010 BKN020=



000
FTUS46 KSGX 032321
TAFONT
TAF
KONT 032321Z 0400/0506 26012G20KT P6SM SCT200
     FM040400 25005KT P6SM BKN200
     FM041200 VRB04KT 5SM BR BKN010
     FM041600 VRB03KT 6SM HZ SCT012 BKN200
     FM042000 25012G20KT P6SM BKN200
     FM050400 VRB05KT P6SM SCT200=



000
FTUS46 KSGX 032321
TAFPSP
TAF
KPSP 032321Z 0400/0424 VRB05KT P6SM SCT200
     FM041900 12008KT P6SM BKN200=



000
FTUS46 KSGX 032321
TAFSNA
TAF
KSNA 032321Z 0400/0424 VRB05KT P6SM SCT018 BKN200
     FM040800 VRB04KT P6SM OVC014
     FM041600 VRB04KT P6SM BKN020
     FM042000 22011KT P6SM BKN025=



000
FTUS46 KSGX 032321
TAFTRM
TAF
KTRM 032321Z 0400/0424 15008KT P6SM SCT200
     FM040200 VRB05KT P6SM BKN200
     FM041800 14011KT P6SM BKN200=



000
FTUS46 KSGX 032321
TAFPSP
TAF
KPSP 032321Z 0400/0424 VRB05KT P6SM SCT200
     FM041900 12008KT P6SM BKN200=



000
FTUS46 KSGX 032321
TAFONT
TAF
KONT 032321Z 0400/0506 26012G20KT P6SM SCT200
     FM040400 25005KT P6SM BKN200
     FM041200 VRB04KT 5SM BR BKN010
     FM041600 VRB03KT 6SM HZ SCT012 BKN200
     FM042000 25012G20KT P6SM BKN200
     FM050400 VRB05KT P6SM SCT200=



000
FTUS46 KSGX 032321
TAFCRQ
TAF
KCRQ 032321Z 0400/0424 24008KT P6SM SCT200
     FM040200 VRB04KT P6SM SCT012
     FM040500 VRB04KT P6SM OVC010
     FM041800 24008KT P6SM SCT010 BKN020=



000
FTUS46 KSGX 032321
TAFSAN
TAF
KSAN 032321Z 0400/0506 30008KT P6SM FEW011 SCT025 SCT200
     FM040200 VRB04KT P6SM SCT011 BKN200
     FM040600 VRB04KT P6SM OVC012
     FM041600 VRB05KT P6SM BKN022
     FM042000 25009KT P6SM BKN025
     FM050200 VRB04KT P6SM OVC022=



000
FTUS46 KSGX 032321
TAFTRM
TAF
KTRM 032321Z 0400/0424 15008KT P6SM SCT200
     FM040200 VRB05KT P6SM BKN200
     FM041800 14011KT P6SM BKN200=



000
FTUS46 KSGX 032321
TAFSNA
TAF
KSNA 032321Z 0400/0424 VRB05KT P6SM SCT018 BKN200
     FM040800 VRB04KT P6SM OVC014
     FM041600 VRB04KT P6SM BKN020
     FM042000 22011KT P6SM BKN025=



000
FTUS46 KSGX 032115 AAA
TAFSAN
TAF AMD
KSAN 032115Z 0321/0424 28010KT P6SM SCT200
     FM040200 VRB04KT P6SM SCT020 BKN200
     FM040300 VRB04KT P6SM OVC018
     FM041600 VRB05KT P6SM BKN022
     FM042000 25009KT P6SM BKN025=



000
FTUS46 KSGX 031739 CCA
TAFSNA
TAF COR
KSNA 031739Z 0318/0418 22009KT P6SM SCT200
     FM040200 VRB04KT P6SM SCT018 BKN200
     FM040500 VRB04KT P6SM OVC018=



000
FTUS46 KSGX 031739 CCA
TAFSNA
TAF COR
KSNA 031739Z 0318/0418 22009KT P6SM SCT200
     FM040200 VRB04KT P6SM SCT018 BKN200
     FM040500 VRB04KT P6SM OVC018=



000
FTUS46 KSGX 031737
TAFSNA
TAF
KSNA 031737Z 0318/0418 22009KT P6SM SCT200
     FM040200 VRB04KT P6SM SCT018 BKN200
     FM040700 VRB04KT P6SM OVC018=



000
FTUS46 KSGX 031737
TAFSAN
TAF
KSAN 031737Z 0318/0424 28010KT P6SM SCT200
     FM040200 VRB04KT P6SM SCT020 BKN200
     FM040300 VRB04KT P6SM OVC018
     FM041600 VRB05KT P6SM BKN022
     FM042000 25009KT P6SM BKN025=



000
FTUS46 KSGX 031737
TAFONT
TAF
KONT 031737Z 0318/0424 VRB04KT P6SM SKC
     FM032100 26012G18KT P6SM SCT200
     FM040400 25005KT P6SM BKN200
     FM041000 VRB04KT 5SM BR BKN010
     FM041600 VRB03KT 6SM HZ SCT012 BKN200
     FM042100 25012G18KT P6SM SCT012 BKN200=



000
FTUS46 KSGX 031737
TAFCRQ
TAF
KCRQ 031737Z 0318/0418 25009KT P6SM SCT200
     FM040200 VRB04KT P6SM OVC015=



000
FTUS46 KSGX 031737
TAFPSP
TAF
KPSP 031737Z 0318/0418 12007KT P6SM SCT200
     FM040000 33010KT P6SM BKN200
     FM040600 VRB05KT P6SM BKN200=



000
FTUS46 KSGX 031737
TAFTRM
TAF
KTRM 031737Z 0318/0418 15008KT P6SM SCT200
     FM040300 33007KT P6SM BKN200
     FM041730 14013G21KT P6SM BKN200=



000
FTUS46 KSGX 031737
TAFPSP
TAF
KPSP 031737Z 0318/0418 12007KT P6SM SCT200
     FM040000 33010KT P6SM BKN200
     FM040600 VRB05KT P6SM BKN200=



000
FTUS46 KSGX 031737
TAFSAN
TAF
KSAN 031737Z 0318/0424 28010KT P6SM SCT200
     FM040200 VRB04KT P6SM SCT020 BKN200
     FM040300 VRB04KT P6SM OVC018
     FM041600 VRB05KT P6SM BKN022
     FM042000 25009KT P6SM BKN025=



000
FTUS46 KSGX 031737
TAFSNA
TAF
KSNA 031737Z 0318/0418 22009KT P6SM SCT200
     FM040200 VRB04KT P6SM SCT018 BKN200
     FM040700 VRB04KT P6SM OVC018=



000
FTUS46 KSGX 031737
TAFTRM
TAF
KTRM 031737Z 0318/0418 15008KT P6SM SCT200
     FM040300 33007KT P6SM BKN200
     FM041730 14013G21KT P6SM BKN200=



000
FTUS46 KSGX 031737
TAFCRQ
TAF
KCRQ 031737Z 0318/0418 25009KT P6SM SCT200
     FM040200 VRB04KT P6SM OVC015=



000
FTUS46 KSGX 031737
TAFONT
TAF
KONT 031737Z 0318/0424 VRB04KT P6SM SKC
     FM032100 26012G18KT P6SM SCT200
     FM040400 25005KT P6SM BKN200
     FM041000 VRB04KT 5SM BR BKN010
     FM041600 VRB03KT 6SM HZ SCT012 BKN200
     FM042100 25012G18KT P6SM SCT012 BKN200=



000
FTUS46 KSGX 031432 AAA
TAFSAN
TAF AMD
KSAN 031432Z 0315/0418 VRB04KT P6SM SCT012
     FM031700 28010KT P6SM SCT200
     FM040200 VRB04KT P6SM SCT020 BKN200
     FM040500 VRB04KT P6SM OVC018
     FM041600 27005KT P6SM BKN022=



000
FTUS46 KSGX 031120
TAFCRQ
TAF
KCRQ 031120Z 0312/0412 VRB04KT P6SM OVC007
     FM031500 VRB03KT P6SM BKN010
     FM031700 25009KT P6SM SCT200
     FM040100 VRB04KT P6SM SCT018 BKN200
     FM040500 VRB04KT P6SM OVC012=



000
FTUS46 KSGX 031120
TAFSAN
TAF
KSAN 031120Z 0312/0418 VRB04KT P6SM OVC012
     FM031700 28010KT P6SM SCT200
     FM040200 VRB04KT P6SM SCT020 BKN200
     FM040500 VRB04KT P6SM OVC018
     FM041600 27005KT P6SM BKN022=



000
FTUS46 KSGX 031120
TAFSNA
TAF
KSNA 031120Z 0312/0412 VRB04KT P6SM OVC009
     FM031500 VRB03KT P6SM BKN012
     FM031700 22009KT P6SM SCT200
     FM040200 VRB04KT P6SM SCT018 BKN200
     FM040700 VRB04KT P6SM OVC015=



000
FTUS46 KSGX 031120
TAFPSP
TAF
KPSP 031120Z 0312/0412 32006KT P6SM SKC
     FM031800 12007KT P6SM SCT200
     FM040200 32007KT P6SM BKN200=



000
FTUS46 KSGX 031120
TAFONT
TAF
KONT 031120Z 0312/0418 VRB04KT P6SM SKC
     FM032100 26012G18KT P6SM SCT200
     FM040400 25005KT P6SM BKN200
     FM041200 VRB04KT 5SM BR BKN010
     FM041600 VRB03KT 6SM HZ SCT012=



000
FTUS46 KSGX 031120
TAFTRM
TAF
KTRM 031120Z 0312/0412 34005KT P6SM SKC
     FM031800 15008KT P6SM SCT200
     FM040300 33007KT P6SM BKN200=



000
FTUS46 KSGX 030857 AAA
TAFSNA
TAF AMD
KSNA 030857Z 0309/0406 VRB04KT P6SM SCT010
     FM031200 VRB04KT P6SM OVC010
     FM031700 VRB04KT P6SM SCT015
     FM031900 24009KT P6SM FEW015
     FM040200 VRB05KT P6SM SCT015=



000
FTUS46 KSGX 030857 AAA
TAFSNA
TAF AMD
KSNA 030857Z 0309/0406 VRB04KT P6SM SCT010
     FM031200 VRB04KT P6SM OVC010
     FM031700 VRB04KT P6SM SCT015
     FM031900 24009KT P6SM FEW015
     FM040200 VRB05KT P6SM SCT015=



000
FTUS46 KSGX 030755 AAA
TAFCRQ
TAF AMD
KCRQ 030755Z 0308/0406 VRB04KT P6SM SCT015
     FM031000 VRB03KT P6SM BKN012
     FM031700 VRB04KT P6SM SCT015
     FM031900 26009KT P6SM SCT015
     FM040100 VRB05KT P6SM BKN015=



000
FTUS46 KSGX 030754 AAA
TAFSAN
TAF AMD
KSAN 030754Z 0308/0412 VRB04KT P6SM SCT015
     FM031000 VRB04KT P6SM OVC015
     FM031800 28010KT P6SM SCT020
     FM040200 VRB04KT P6SM SCT020
     FM040400 VRB04KT P6SM BKN018=



000
FTUS46 KSGX 030754 AAA
TAFSAN
TAF AMD
KSAN 030754Z 0308/0412 VRB04KT P6SM SCT015
     FM031000 VRB04KT P6SM OVC015
     FM031800 28010KT P6SM SCT020
     FM040200 VRB04KT P6SM SCT020
     FM040400 VRB04KT P6SM BKN018=



000
FTUS46 KSGX 030520
TAFCRQ
TAF
KCRQ 030520Z 0306/0406 VRB04KT P6SM SCT010 SCT020
     FM030700 VRB03KT P6SM BKN012
     FM031700 VRB04KT P6SM SCT015
     FM031900 26009KT P6SM SCT015
     FM040100 VRB05KT P6SM BKN015=



000
FTUS46 KSGX 030520
TAFONT
TAF
KONT 030520Z 0306/0412 VRB04KT P6SM SKC
      TEMPO 0311/0314 4SM HZ FEW010
     FM032100 26011KT P6SM SKC
     FM040400 VRB05KT P6SM FEW010
     FM041100 VRB04KT 4SM BR BKN010=



000
FTUS46 KSGX 030520
TAFSAN
TAF
KSAN 030520Z 0306/0412 VRB04KT P6SM SCT015
     FM030730 VRB04KT P6SM OVC015
     FM031800 28010KT P6SM SCT020
     FM040200 VRB04KT P6SM SCT020
     FM040400 VRB04KT P6SM BKN018=



000
FTUS46 KSGX 030520
TAFONT
TAF
KONT 030520Z 0306/0412 VRB04KT P6SM SKC
      TEMPO 0311/0314 4SM HZ FEW010
     FM032100 26011KT P6SM SKC
     FM040400 VRB05KT P6SM FEW010
     FM041100 VRB04KT 4SM BR BKN010=



000
FTUS46 KSGX 030520
TAFSAN
TAF
KSAN 030520Z 0306/0412 VRB04KT P6SM SCT015
     FM030730 VRB04KT P6SM OVC015
     FM031800 28010KT P6SM SCT020
     FM040200 VRB04KT P6SM SCT020
     FM040400 VRB04KT P6SM BKN018=



000
FTUS46 KSGX 030520
TAFSNA
TAF
KSNA 030520Z 0306/0406 VRB04KT P6SM SCT015
     FM030900 VRB04KT P6SM OVC012
     FM031700 VRB04KT P6SM SCT015
     FM031900 24009KT P6SM FEW015
     FM040200 VRB05KT P6SM SCT015=



000
FTUS46 KSGX 030520
TAFPSP
TAF
KPSP 030520Z 0306/0406 VRB06KT P6SM SKC=



000
FTUS46 KSGX 030520
TAFTRM
TAF
KTRM 030520Z 0306/0406 VRB06KT P6SM SKC=



000
FTUS46 KSGX 030520
TAFCRQ
TAF
KCRQ 030520Z 0306/0406 VRB04KT P6SM SCT010 SCT020
     FM030700 VRB03KT P6SM BKN012
     FM031700 VRB04KT P6SM SCT015
     FM031900 26009KT P6SM SCT015
     FM040100 VRB05KT P6SM BKN015=



000
FTUS46 KSGX 030520
TAFSNA
TAF
KSNA 030520Z 0306/0406 VRB04KT P6SM SCT015
     FM030900 VRB04KT P6SM OVC012
     FM031700 VRB04KT P6SM SCT015
     FM031900 24009KT P6SM FEW015
     FM040200 VRB05KT P6SM SCT015=



000
FTUS46 KSGX 030520
TAFPSP
TAF
KPSP 030520Z 0306/0406 VRB06KT P6SM SKC=



000
FTUS46 KSGX 030520
TAFTRM
TAF
KTRM 030520Z 0306/0406 VRB06KT P6SM SKC=



    US Dept of Commerce
    National Oceanic and Atmospheric Administration
    National Weather Service
    1325 East West Highway
    Silver Spring, MD 20910
    Page Author: NWS Internet Services Team
Disclaimer
Information Quality
Credits
Glossary
Privacy Policy
Freedom of Information Act (FOIA)
About Us
Career Opportunities